Time;durP1;ratioP1;P1;durP2;ratioP2;P2;SDS_P1;SDS_P2;PMS_P1;PMS_P2;Temp;Humidity;BMP_temperature;BMP_pressure;BME280_temperature;BME280_humidity;BME280_pressure;Samples;Min_cycle;Max_cycle;Signal;HPM_P1;HPM_P2
2021/11/21 00:00:31;;;;;;;35.65;20.30;;;8.00;99.90;;;8.50;100.00;100392.94;5076342;28;20021;-82
2021/11/21 00:02:58;;;;;;;35.97;20.73;;;7.90;99.90;;;8.48;100.00;100400.00;5074772;28;20035;-80
2021/11/21 00:05:25;;;;;;;34.90;19.98;;;7.90;99.90;;;8.54;100.00;100399.41;5076531;28;20028;-81
2021/11/21 00:07:51;;;;;;;31.77;19.02;;;7.90;99.90;;;8.57;100.00;100397.91;5077019;28;20025;-81
2021/11/21 00:10:17;;;;;;;33.13;19.33;;;7.90;99.90;;;8.56;100.00;100397.09;5092324;28;20031;-81
2021/11/21 00:12:44;;;;;;;35.90;20.48;;;7.90;99.90;;;8.46;100.00;100390.03;5096623;28;20055;-81
2021/11/21 00:15:10;;;;;;;39.22;21.20;;;7.90;99.90;;;8.44;100.00;100397.91;5099540;28;20024;-83
2021/11/21 00:17:36;;;;;;;34.85;19.38;;;7.90;99.90;;;8.49;100.00;100385.72;5104428;28;20031;-81
2021/11/21 00:20:05;;;;;;;33.25;19.23;;;7.90;99.90;;;8.53;100.00;100386.66;5110451;28;20028;-80
2021/11/21 00:22:35;;;;;;;35.53;20.42;;;7.90;99.90;;;8.48;100.00;100396.03;5110309;28;20024;-83
2021/11/21 00:25:04;;;;;;;37.30;19.92;;;7.90;99.90;;;8.44;100.00;100385.97;5100029;28;20049;-81
2021/11/21 00:27:31;;;;;;;37.97;21.48;;;7.90;99.90;;;8.53;100.00;100385.84;5076797;28;20445;-79
2021/11/21 00:29:57;;;;;;;38.38;21.55;;;7.90;99.90;;;8.51;100.00;100382.59;5093554;28;20024;-81
2021/11/21 00:32:23;;;;;;;39.35;21.63;;;7.80;99.90;;;8.52;100.00;100378.66;5092646;28;20028;-81
2021/11/21 00:34:49;;;;;;;38.95;21.30;;;7.90;99.90;;;8.49;100.00;100385.72;5093319;28;20031;-79
2021/11/21 00:37:17;;;;;;;39.28;21.20;;;7.80;99.90;;;8.41;100.00;100373.56;5092417;28;20030;-80
2021/11/21 00:39:43;;;;;;;37.08;20.25;;;7.80;99.90;;;8.48;100.00;100372.19;5093636;28;20024;-80
2021/11/21 00:42:10;;;;;;;45.20;22.13;;;7.80;99.90;;;8.46;100.00;100373.31;5076125;28;20480;-79
2021/11/21 00:44:36;;;;;;;39.20;21.23;;;7.80;99.90;;;8.44;100.00;100375.63;5092124;28;20407;-80
2021/11/21 00:47:02;;;;;;;40.72;22.08;;;7.70;99.90;;;8.42;100.00;100371.59;5092823;28;20282;-84
2021/11/21 00:49:28;;;;;;;37.33;22.10;;;7.70;99.90;;;8.36;100.00;100365.47;5102183;28;20028;-78
2021/11/21 00:51:54;;;;;;;44.30;24.08;;;7.70;99.90;;;8.33;100.00;100357.00;5109662;28;20425;-81
2021/11/21 00:54:24;;;;;;;44.45;23.27;;;7.80;99.90;;;8.38;100.00;100352.00;5100646;28;20036;-80
2021/11/21 00:56:51;;;;;;;41.55;23.67;;;7.70;99.90;;;8.30;100.00;100352.94;5098450;28;20028;-84
2021/11/21 00:59:20;;;;;;;43.38;23.83;;;7.60;99.90;;;8.27;100.00;100355.59;5098232;28;20089;-80
2021/11/21 01:01:49;;;;;;;46.67;25.02;;;7.60;99.90;;;8.22;100.00;100350.28;5096989;28;20032;-80
2021/11/21 01:04:16;;;;;;;41.03;23.55;;;7.60;99.90;;;8.25;100.00;100347.56;5097415;28;20028;-79
2021/11/21 01:06:45;;;;;;;44.65;24.10;;;7.60;99.90;;;8.23;100.00;100336.00;5096039;28;20118;-81
2021/11/21 01:09:12;;;;;;;43.60;24.17;;;7.60;99.90;;;8.23;100.00;100332.41;5096593;28;20058;-80
2021/11/21 01:11:40;;;;;;;45.83;24.80;;;7.60;99.90;;;8.23;100.00;100336.00;5094795;28;20037;-81
2021/11/21 01:14:09;;;;;;;44.15;23.88;;;7.50;99.90;;;8.21;100.00;100334.72;5077565;28;20455;-81
2021/11/21 01:16:35;;;;;;;43.05;22.05;;;7.60;99.90;;;8.18;100.00;100329.88;5094741;28;20032;-82
2021/11/21 01:19:03;;;;;;;43.05;23.65;;;7.50;99.90;;;8.14;100.00;100320.59;5097814;28;20434;-83
2021/11/21 01:21:29;;;;;;;48.22;24.55;;;7.50;99.90;;;8.13;100.00;100322.56;5064138;28;20379;-83
2021/11/21 01:23:57;;;;;;;44.83;24.30;;;7.50;99.90;;;8.14;100.00;100328.94;5096664;28;20093;-82
2021/11/21 01:26:23;;;;;;;49.67;26.05;;;7.50;99.90;;;8.14;100.00;100324.19;5098156;28;20047;-82
2021/11/21 01:28:50;;;;;;;44.80;25.05;;;7.50;99.90;;;8.15;100.00;100319.44;5095701;28;20376;-81
2021/11/21 01:31:15;;;;;;;45.80;24.27;;;7.50;99.90;;;8.17;100.00;100315.16;5078283;28;20440;-82
2021/11/21 01:33:41;;;;;;;49.63;27.38;;;7.40;99.90;;;8.14;100.00;100313.06;5096707;28;20032;-80
2021/11/21 01:36:07;;;;;;;46.70;25.20;;;7.40;99.90;;;8.07;100.00;100317.56;5099700;28;20031;-82
2021/11/21 01:38:35;;;;;;;47.55;24.77;;;7.50;99.90;;;8.07;100.00;100310.06;5098027;28;20490;-82
2021/11/21 01:41:02;;;;;;;52.65;26.70;;;7.40;99.90;;;8.12;100.00;100314.56;5098546;28;20032;-83
2021/11/21 01:43:28;;;;;;;48.25;25.30;;;7.40;99.90;;;8.10;100.00;100309.34;5081419;28;20047;-84
2021/11/21 01:45:54;;;;;;;50.72;25.73;;;7.40;99.90;;;8.02;100.00;100310.31;5098594;28;20032;-82
2021/11/21 01:48:20;;;;;;;52.63;25.63;;;7.40;99.90;;;8.02;100.00;100299.19;5098923;28;20024;-81
2021/11/21 01:50:48;;;;;;;48.65;26.23;;;7.40;99.90;;;8.06;100.00;100302.84;5097994;28;20036;-82
2021/11/21 01:53:15;;;;;;;48.65;25.92;;;7.40;99.90;;;8.05;100.00;100306.81;5098215;28;20025;-80
2021/11/21 01:55:47;;;;;;;45.40;24.58;;;7.40;99.90;;;8.08;100.00;100302.53;5097931;28;20028;-80
2021/11/21 01:58:16;;;;;;;49.35;26.55;;;7.40;99.90;;;8.04;100.00;100304.38;5097800;28;20032;-81
2021/11/21 02:00:46;;;;;;;42.53;22.77;;;7.40;99.90;;;8.02;100.00;100296.41;5097783;28;20497;-82
2021/11/21 02:03:13;;;;;;;46.50;24.58;;;7.40;99.90;;;8.01;100.00;100294.75;5081220;28;20040;-82
2021/11/21 02:05:40;;;;;;;47.47;24.20;;;7.40;99.90;;;8.02;100.00;100290.03;5096723;28;20085;-80
2021/11/21 02:08:09;;;;;;;49.63;26.50;;;7.40;99.90;;;8.03;100.00;100286.09;5096978;28;20032;-82
2021/11/21 02:10:36;;;;;;;44.85;24.52;;;7.40;99.90;;;8.06;100.00;100285.38;5098997;28;20020;-79
2021/11/21 02:13:06;;;;;;;45.90;24.58;;;7.40;99.90;;;8.08;100.00;100283.06;5096861;28;20035;-79
2021/11/21 02:15:34;;;;;;;44.08;24.10;;;7.40;99.90;;;8.08;100.00;100278.31;5097996;28;20483;-81
2021/11/21 02:18:01;;;;;;;49.58;25.63;;;7.30;99.90;;;8.01;100.00;100266.97;5098749;28;20379;-79
2021/11/21 02:20:33;;;;;;;46.90;23.60;;;7.30;99.90;;;7.99;100.00;100262.91;5096982;28;20024;-81
2021/11/21 02:23:06;;;;;;;49.00;25.70;;;7.30;99.90;;;8.02;100.00;100267.78;5095899;28;20482;-80
2021/11/21 02:25:34;;;;;;;46.35;23.77;;;7.30;99.90;;;7.96;100.00;100262.44;5096752;28;20044;-80
2021/11/21 02:28:01;;;;;;;47.42;24.55;;;7.30;99.90;;;8.00;100.00;100254.19;5098591;28;20024;-80
2021/11/21 02:30:27;;;;;;;46.78;23.65;;;7.40;99.90;;;8.09;100.00;100256.88;5097435;28;20062;-80
2021/11/21 02:32:54;;;;;;;41.10;21.55;;;7.40;99.90;;;8.01;100.00;100246.69;5096955;28;20028;-81
2021/11/21 02:35:23;;;;;;;42.38;22.08;;;7.30;99.90;;;7.97;100.00;100252.94;5098592;28;20115;-80
2021/11/21 02:37:51;;;;;;;44.10;22.98;;;7.30;99.90;;;8.00;100.00;100253.38;5097369;28;20028;-79
2021/11/21 02:40:19;;;;;;;41.50;22.95;;;7.40;99.90;;;7.99;100.00;100246.22;5096797;28;20099;-82
2021/11/21 02:42:46;;;;;;;42.80;22.35;;;7.40;99.90;;;7.96;100.00;100251.31;5095444;28;20028;-81
2021/11/21 02:45:18;;;;;;;38.40;20.90;;;7.40;99.90;;;7.94;100.00;100242.50;5095153;28;20088;-80
2021/11/21 02:47:45;;;;;;;43.67;21.80;;;7.30;99.90;;;8.00;100.00;100248.63;5078484;28;20036;-79
2021/11/21 02:50:21;;;;;;;38.72;21.02;;;7.40;99.90;;;8.05;100.00;100244.81;5096145;28;20115;-78
2021/11/21 02:52:50;;;;;;;40.38;21.88;;;7.30;99.90;;;8.04;100.00;100241.22;5078790;28;20020;-81
2021/11/21 02:55:17;;;;;;;38.72;20.88;;;7.30;99.90;;;8.01;100.00;100236.38;5079156;28;20114;-83
2021/11/21 02:57:45;;;;;;;37.45;20.15;;;7.40;99.90;;;8.04;100.00;100232.06;5096214;28;20035;-80
2021/11/21 03:00:15;;;;;;;40.58;21.55;;;7.30;99.90;;;7.95;100.00;100221.91;5095493;28;20092;-81
2021/11/21 03:02:46;;;;;;;40.65;21.75;;;7.30;99.90;;;8.02;100.00;100223.28;5096198;28;20028;-82
2021/11/21 03:05:14;;;;;;;39.72;21.48;;;7.30;99.90;;;8.03;100.00;100217.34;5098241;28;20151;-80
2021/11/21 03:07:40;;;;;;;38.30;20.98;;;7.40;99.90;;;7.93;100.00;100213.06;5114842;28;20046;-84
2021/11/21 03:10:09;;;;;;;38.53;21.63;;;7.40;99.90;;;7.99;100.00;100205.31;5087486;28;20025;-86
2021/11/21 03:12:35;;;;;;;34.78;19.38;;;7.30;99.90;;;7.95;100.00;100201.63;5062629;28;20037;-81
2021/11/21 03:15:02;;;;;;;38.47;20.70;;;7.30;99.90;;;7.96;100.00;100189.34;5079089;28;20495;-80
2021/11/21 03:17:28;;;;;;;41.13;21.85;;;7.30;99.90;;;7.95;100.00;100188.53;5078105;28;20080;-82
2021/11/21 03:19:54;;;;;;;39.60;20.65;;;7.30;99.90;;;7.96;100.00;100183.78;5078936;28;20480;-82
2021/11/21 03:22:20;;;;;;;40.63;20.45;;;7.30;99.90;;;8.04;100.00;100179.22;5076841;28;20167;-81
2021/11/21 03:24:46;;;;;;;39.00;20.65;;;7.30;99.90;;;7.95;100.00;100182.16;5076407;28;20065;-81
2021/11/21 03:27:13;;;;;;;40.70;21.10;;;7.30;99.90;;;7.99;100.00;100176.69;5075651;28;20036;-82
2021/11/21 03:29:40;;;;;;;43.85;22.95;;;7.30;99.90;;;7.99;100.00;100176.69;5075801;28;20054;-80
2021/11/21 03:32:08;;;;;;;39.38;21.05;;;7.30;99.90;;;7.95;100.00;100169.06;5077223;28;20044;-85
2021/11/21 03:34:37;;;;;;;39.42;21.58;;;7.30;99.90;;;7.95;100.00;100171.84;5081234;28;20104;-84
2021/11/21 03:37:06;;;;;;;40.80;21.13;;;7.30;99.90;;;7.99;100.00;100168.34;5082030;28;20074;-82
2021/11/21 03:39:32;;;;;;;39.42;20.25;;;7.30;99.90;;;7.99;100.00;100162.78;5062602;28;20147;-84
2021/11/21 03:41:58;;;;;;;39.58;21.30;;;7.30;99.90;;;7.94;100.00;100153.53;5079668;28;20059;-82
2021/11/21 03:44:24;;;;;;;38.95;21.52;;;7.40;99.90;;;8.01;100.00;100163.25;5077877;28;20036;-83
2021/11/21 03:46:50;;;;;;;43.47;22.67;;;7.30;99.90;;;8.02;100.00;100165.69;5079619;28;20063;-84
2021/11/21 03:49:16;;;;;;;40.10;22.33;;;7.30;99.90;;;7.97;100.00;100160.34;5077607;28;20111;-79
2021/11/21 03:51:43;;;;;;;37.63;21.08;;;7.40;99.90;;;7.96;100.00;100167.88;5078368;28;20079;-82
2021/11/21 03:54:09;;;;;;;38.05;20.65;;;7.30;99.90;;;8.04;100.00;100168.09;5076993;28;20048;-80
2021/11/21 03:56:35;;;;;;;39.08;21.60;;;7.30;99.90;;;8.06;100.00;100160.22;5073056;28;20124;-82
2021/11/21 03:59:02;;;;;;;37.00;19.95;;;7.30;99.90;;;8.08;100.00;100163.47;5075144;28;20111;-81
2021/11/21 04:01:28;;;;;;;38.25;20.88;;;7.40;99.90;;;8.03;100.00;100164.50;5074761;28;20039;-81
2021/11/21 04:03:54;;;;;;;40.03;21.27;;;7.30;99.90;;;8.01;100.00;100152.94;5074846;28;20111;-81
2021/11/21 04:06:20;;;;;;;40.60;21.08;;;7.30;99.90;;;8.02;100.00;100157.34;5075847;28;20131;-81
2021/11/21 04:08:46;;;;;;;42.60;22.40;;;7.30;99.90;;;8.03;100.00;100161.72;5078535;28;20034;-81
2021/11/21 04:11:12;;;;;;;38.60;20.92;;;7.40;99.90;;;7.99;100.00;100152.50;5098059;28;20024;-81
2021/11/21 04:13:38;;;;;;;42.72;21.85;;;7.30;99.90;;;8.02;100.00;100151.78;5097202;28;20027;-80
2021/11/21 04:16:05;;;;;;;41.42;21.90;;;7.30;99.90;;;8.10;100.00;100153.59;5098058;28;20491;-81
2021/11/21 04:18:33;;;;;;;43.20;23.13;;;7.40;99.90;;;8.10;100.00;100144.44;5100256;28;20077;-80
2021/11/21 04:20:59;;;;;;;40.55;21.63;;;7.40;99.90;;;8.08;100.00;100132.88;5082582;28;20040;-82
2021/11/21 04:23:30;;;;;;;44.92;22.83;;;7.40;99.90;;;8.04;100.00;100137.50;5100102;28;20028;-85
2021/11/21 04:25:59;;;;;;;44.17;22.05;;;7.40;99.90;;;8.02;100.00;100142.63;5100628;28;20028;-85
2021/11/21 04:28:26;;;;;;;40.42;21.27;;;7.30;99.90;;;8.05;100.00;100139.13;5085367;28;20495;-79
2021/11/21 04:30:53;;;;;;;40.75;21.70;;;7.30;99.90;;;7.96;100.00;100142.84;5087627;28;20104;-81
2021/11/21 04:33:24;;;;;;;42.90;23.30;;;7.30;99.90;;;7.97;100.00;100132.53;5108469;28;20024;-83
2021/11/21 04:35:51;;;;;;;41.33;20.58;;;7.30;99.90;;;7.99;100.00;100135.00;5098735;28;20032;-83
2021/11/21 04:38:19;;;;;;;38.58;20.65;;;7.30;99.90;;;7.99;100.00;100129.41;5080908;28;20031;-81
2021/11/21 04:40:47;;;;;;;42.20;21.35;;;7.30;99.90;;;8.01;100.00;100125.13;5095420;28;20038;-79
2021/11/21 04:43:13;;;;;;;40.63;21.40;;;7.30;99.90;;;8.00;100.00;100128.25;5074052;23;20044;-83
2021/11/21 04:45:39;;;;;;;40.30;20.35;;;7.30;99.90;;;7.97;100.00;100121.41;5018112;28;20413;-83
2021/11/21 04:48:06;;;;;;;44.42;22.48;;;7.30;99.90;;;8.00;100.00;100123.50;5016048;28;20026;-81
2021/11/21 04:50:33;;;;;;;41.55;21.27;;;7.30;99.90;;;7.97;100.00;100119.44;5015731;28;20025;-81
2021/11/21 04:52:59;;;;;;;39.03;20.02;;;7.30;99.90;;;7.96;100.00;100109.47;4998764;28;20030;-84
2021/11/21 04:55:25;;;;;;;36.63;20.30;;;7.30;99.90;;;7.96;100.00;100115.03;4998689;28;20026;-84
2021/11/21 04:57:51;;;;;;;37.50;19.65;;;7.30;99.90;;;7.99;100.00;100104.41;4999610;28;20029;-83
2021/11/21 05:00:20;;;;;;;38.30;20.20;;;7.30;99.90;;;8.02;100.00;100107.28;4999532;28;20053;-84
2021/11/21 05:02:51;;;;;;;41.53;20.95;;;7.30;99.90;;;7.99;100.00;100096.88;4998870;28;20045;-82
2021/11/21 05:05:23;;;;;;;39.25;20.77;;;7.30;99.90;;;7.88;100.00;100091.00;4999488;28;20053;-86
2021/11/21 05:07:51;;;;;;;39.10;20.77;;;7.30;99.90;;;7.93;100.00;100101.03;5017703;28;20025;-86
2021/11/21 05:10:20;;;;;;;36.03;20.17;;;7.30;99.90;;;7.97;100.00;100091.66;5019581;28;20470;-85
2021/11/21 05:12:46;;;;;;;46.67;19.95;;;7.30;99.90;;;7.97;100.00;100085.28;5003624;28;20121;-87
2021/11/21 05:15:20;;;;;;;38.33;20.48;;;7.30;99.90;;;7.97;100.00;100082.50;5004098;28;20030;-85
2021/11/21 05:17:48;;;;;;;37.22;19.25;;;7.30;99.90;;;8.01;100.00;100077.03;5019110;28;20204;-84
2021/11/21 05:20:17;;;;;;;42.30;20.70;;;7.30;99.90;;;8.03;100.00;100080.28;5003517;28;20604;-84
2021/11/21 05:22:45;;;;;;;39.22;20.02;;;7.30;99.90;;;7.99;100.00;100077.41;5004535;28;20029;-83
2021/11/21 05:25:13;;;;;;;41.10;21.50;;;7.30;99.90;;;8.01;100.00;100080.63;5003910;28;20040;-83
2021/11/21 05:27:43;;;;;;;35.67;18.88;;;7.30;99.90;;;8.04;100.00;100088.25;5003672;28;20367;-82
2021/11/21 05:30:10;;;;;;;41.58;21.15;;;7.30;99.90;;;8.06;100.00;100085.13;5019189;28;20037;-81
2021/11/21 05:32:36;;;;;;;38.67;20.27;;;7.30;99.90;;;8.06;100.00;100094.25;5002299;28;20422;-84
2021/11/21 05:35:02;;;;;;;46.00;22.73;;;7.40;99.90;;;8.07;100.00;100095.88;5002500;28;20026;-83
2021/11/21 05:37:28;;;;;;;46.40;22.30;;;7.30;99.90;;;8.07;100.00;100095.88;5002801;28;20037;-84
2021/11/21 05:39:56;;;;;;;46.22;22.20;;;7.40;99.90;;;8.07;100.00;100089.50;5002088;28;20029;-84
2021/11/21 05:42:22;;;;;;;41.20;21.85;;;7.30;99.90;;;8.09;100.00;100087.22;5002581;28;20034;-82
2021/11/21 05:44:48;;;;;;;48.08;23.05;;;7.40;99.90;;;8.08;100.00;100085.56;5002383;28;20041;-83
2021/11/21 05:47:14;;;;;;;48.58;22.10;;;7.40;99.90;;;8.10;100.00;100084.06;5002714;28;20068;-82
2021/11/21 05:49:40;;;;;;;46.22;22.70;;;7.40;99.90;;;8.12;100.00;100078.16;5002008;28;20034;-84
2021/11/21 05:52:07;;;;;;;48.83;23.33;;;7.40;99.90;;;8.11;100.00;100073.75;5017930;28;20546;-84
2021/11/21 05:54:32;;;;;;;47.60;23.45;;;7.40;99.90;;;8.09;100.00;100079.66;5001624;28;20037;-83
2021/11/21 05:56:58;;;;;;;48.10;23.15;;;7.40;99.90;;;8.07;100.00;100073.63;5001715;28;20089;-82
2021/11/21 05:59:24;;;;;;;49.40;24.30;;;7.40;99.90;;;8.02;100.00;100065.56;5019426;28;20493;-82
2021/11/21 06:01:51;;;;;;;47.72;24.30;;;7.40;99.90;;;8.06;100.00;100068.44;5018616;28;20040;-82
2021/11/21 06:04:18;;;;;;;50.95;25.38;;;7.40;99.90;;;8.10;100.00;100072.94;5018570;28;20191;-83
2021/11/21 06:06:44;;;;;;;49.47;24.33;;;7.40;99.90;;;8.05;100.00;100059.28;5002734;28;20030;-83
2021/11/21 06:09:10;;;;;;;52.20;25.10;;;7.30;99.90;;;7.99;100.00;100060.72;5002270;28;20120;-84
2021/11/21 06:11:37;;;;;;;49.28;23.83;;;7.30;99.90;;;8.09;100.00;100056.63;5018901;28;20084;-82
2021/11/21 06:14:03;;;;;;;52.70;25.15;;;7.30;99.90;;;8.05;100.00;100064.84;5003627;28;20064;-83
2021/11/21 06:16:29;;;;;;;56.85;25.17;;;7.30;99.90;;;8.05;100.00;100064.03;5019693;28;20030;-83
2021/11/21 06:18:54;;;;;;;56.85;25.67;;;7.30;99.90;;;7.97;100.00;100049.94;5017667;28;20056;-84
2021/11/21 06:21:20;;;;;;;53.53;25.15;;;7.30;99.90;;;8.01;100.00;100057.56;5018949;28;20029;-85
2021/11/21 06:23:46;;;;;;;50.88;26.48;;;7.40;99.90;;;8.06;100.00;100057.31;5019482;28;20033;-87
2021/11/21 06:26:12;;;;;;;50.22;25.98;;;7.30;99.90;;;8.06;100.00;100062.88;5018529;28;20030;-88
2021/11/21 06:28:38;;;;;;;55.88;26.88;;;7.40;99.90;;;8.03;100.00;100058.81;5019824;28;20028;-87
2021/11/21 06:31:04;;;;;;;63.15;28.50;;;7.40;99.90;;;7.99;100.00;100054.34;5025096;28;20536;-88
2021/11/21 06:33:32;;;;;;;54.03;26.50;;;7.30;99.90;;;8.05;100.00;100052.91;5012639;28;20034;-85
2021/11/21 06:35:58;;;;;;;53.60;26.70;;;7.30;99.90;;;8.10;100.00;100050.69;5018892;28;20030;-84
2021/11/21 06:38:24;;;;;;;56.40;26.65;;;7.40;99.90;;;8.14;100.00;100051.59;5016443;28;20363;-84
2021/11/21 06:40:50;;;;;;;50.45;25.17;;;7.40;99.90;;;8.08;100.00;100046.63;5016851;28;20029;-83
2021/11/21 06:43:16;;;;;;;49.72;23.45;;;7.40;99.90;;;8.04;100.00;100052.09;5018688;28;20121;-84
2021/11/21 06:45:42;;;;;;;48.58;23.90;;;7.40;99.90;;;8.14;100.00;100050.78;5018408;28;20026;-84
2021/11/21 06:48:12;;;;;;;48.20;24.05;;;7.40;99.90;;;8.10;100.00;100044.31;5019795;28;20030;-83
2021/11/21 06:50:38;;;;;;;52.08;23.92;;;7.40;99.90;;;8.04;100.00;100046.53;5019224;28;20034;-84
2021/11/21 06:53:06;;;;;;;55.40;26.38;;;7.40;99.90;;;8.07;100.00;100050.56;5003747;28;20478;-83
2021/11/21 06:55:32;;;;;;;50.72;24.15;;;7.40;99.90;;;8.12;100.00;100047.56;5004724;28;20090;-83
2021/11/21 06:58:02;;;;;;;50.72;24.98;;;7.40;99.90;;;8.10;100.00;100049.88;5026342;28;20025;-84
2021/11/21 07:00:28;;;;;;;50.15;23.92;;;7.40;99.90;;;8.07;100.00;100047.78;5020282;28;20037;-84
2021/11/21 07:02:54;;;;;;;52.53;25.02;;;7.40;99.90;;;8.06;100.00;100048.97;5019839;28;20102;-85
2021/11/21 07:05:20;;;;;;;57.47;26.38;;;7.40;99.90;;;8.07;100.00;100050.56;5019052;28;20026;-85
2021/11/21 07:07:46;;;;;;;52.15;25.65;;;7.40;99.90;;;8.08;100.00;100049.41;5019613;28;20153;-85
2021/11/21 07:10:12;;;;;;;51.13;25.05;;;7.40;99.90;;;8.07;100.00;100045.00;5018016;28;20033;-84
2021/11/21 07:12:38;;;;;;;54.97;25.48;;;7.40;99.90;;;8.09;100.00;100054.63;5001825;28;20030;-83
2021/11/21 07:15:05;;;;;;;51.45;24.98;;;7.40;99.90;;;8.07;100.00;100053.34;5018860;28;20030;-85
2021/11/21 07:17:32;;;;;;;54.00;25.45;;;7.40;99.90;;;8.11;100.00;100048.72;5017141;28;20030;-83
2021/11/21 07:19:58;;;;;;;50.60;25.67;;;7.40;99.90;;;8.13;100.00;100054.72;5001693;28;20037;-85
2021/11/21 07:22:24;;;;;;;53.95;25.23;;;7.40;99.90;;;8.14;100.00;100059.13;5018988;28;20033;-82
2021/11/21 07:24:50;;;;;;;49.67;23.35;;;7.40;99.90;;;8.11;100.00;100057.88;5019449;28;20113;-84
2021/11/21 07:27:16;;;;;;;48.35;22.92;;;7.40;99.90;;;8.09;100.00;100060.19;5002050;28;20060;-84
2021/11/21 07:29:42;;;;;;;51.95;24.27;;;7.40;99.90;;;8.10;100.00;100063.78;5001823;28;20037;-84
2021/11/21 07:32:08;;;;;;;44.80;20.98;;;7.40;99.90;;;8.11;100.00;100062.63;5015545;28;20103;-84
2021/11/21 07:34:34;;;;;;;40.05;20.70;;;7.40;99.90;;;8.14;100.00;100064.69;5016599;28;20021;-83
2021/11/21 07:37:00;;;;;;;44.15;21.33;;;7.40;99.90;;;8.09;100.00;100067.75;5015624;28;20378;-83
2021/11/21 07:39:26;;;;;;;39.97;19.92;;;7.40;99.90;;;8.10;100.00;100067.38;5004712;28;20033;-85
2021/11/21 07:41:52;;;;;;;40.25;19.85;;;7.40;99.90;;;8.14;100.00;100068.28;5024306;28;20049;-82
2021/11/21 07:44:20;;;;;;;45.97;20.95;;;7.40;99.90;;;8.13;100.00;100065.84;5003436;28;20041;-85
2021/11/21 07:46:45;;;;;;;43.67;20.58;;;7.40;99.90;;;8.12;100.00;100076.19;5002991;28;20060;-84
2021/11/21 07:49:11;;;;;;;40.58;19.85;;;7.40;99.90;;;8.10;100.00;100069.34;5002902;28;20053;-84
2021/11/21 07:51:37;;;;;;;44.58;19.10;;;7.40;99.90;;;8.11;100.00;100070.97;5002161;28;20037;-81
2021/11/21 07:54:04;;;;;;;38.63;18.92;;;7.40;99.90;;;8.08;100.00;100072.50;5002557;28;20030;-86
2021/11/21 07:56:30;;;;;;;41.15;20.05;;;7.40;99.90;;;8.11;100.00;100071.78;5001215;28;20208;-86
2021/11/21 07:58:57;;;;;;;40.38;17.77;;;7.40;99.90;;;8.17;100.00;100078.69;5001949;28;20486;-83
2021/11/21 08:01:24;;;;;;;37.63;17.33;;;7.40;99.90;;;8.15;100.00;100067.13;5001029;28;20030;-85
2021/11/21 08:03:50;;;;;;;35.70;17.48;;;7.50;99.90;;;8.16;100.00;100076.25;5002305;28;20038;-83
2021/11/21 08:06:16;;;;;;;33.65;15.88;;;7.40;99.90;;;8.23;100.00;100082.00;5002333;28;20147;-82
2021/11/21 08:08:42;;;;;;;32.88;15.38;;;7.40;99.90;;;8.16;100.00;100082.63;5004731;28;20050;-87
2021/11/21 08:11:08;;;;;;;31.85;15.45;;;7.40;99.90;;;8.21;100.00;100081.56;5020323;28;20152;-83
2021/11/21 08:13:38;;;;;;;40.60;18.83;;;7.40;99.90;;;8.28;100.00;100082.59;5020013;28;20030;-85
2021/11/21 08:16:05;;;;;;;34.97;16.88;;;7.50;99.90;;;8.27;100.00;100086.53;5018434;28;20022;-84
2021/11/21 08:18:31;;;;;;;33.55;15.80;;;7.50;99.90;;;8.26;100.00;100084.91;5018617;28;20049;-85
2021/11/21 08:20:57;;;;;;;32.60;14.93;;;7.50;99.90;;;8.26;100.00;100087.69;5019141;28;20037;-83
2021/11/21 08:23:24;;;;;;;26.35;13.23;;;7.50;99.90;;;8.26;100.00;100084.09;5019340;28;20485;-83
2021/11/21 08:25:50;;;;;;;27.02;13.73;;;7.50;99.90;;;8.31;100.00;100089.44;5018836;28;20133;-83
2021/11/21 08:28:18;;;;;;;23.20;12.55;;;7.60;99.90;;;8.36;100.00;100078.84;5018547;28;20076;-82
2021/11/21 08:30:45;;;;;;;22.65;11.30;;;7.60;99.90;;;8.39;100.00;100085.66;5017956;28;20500;-85
2021/11/21 08:33:12;;;;;;;20.98;12.20;;;7.60;99.90;;;8.46;100.00;100092.25;5000958;28;20057;-86
2021/11/21 08:35:40;;;;;;;21.35;11.75;;;7.70;99.90;;;8.56;100.00;100090.91;5017884;28;20022;-82
2021/11/21 08:38:07;;;;;;;23.60;11.52;;;7.70;99.90;;;8.63;100.00;100096.66;5018283;28;20060;-83
2021/11/21 08:40:35;;;;;;;24.10;12.25;;;7.70;99.90;;;8.58;100.00;100087.75;5003090;28;20096;-85
2021/11/21 08:43:03;;;;;;;21.45;11.73;;;7.80;99.90;;;8.71;100.00;100089.28;5013345;28;20057;-79
2021/11/21 08:45:32;;;;;;;21.42;11.68;;;7.90;99.90;;;8.77;100.00;100093.41;5000100;28;20041;-81
2021/11/21 08:48:02;;;;;;;19.15;10.98;;;7.90;99.90;;;8.79;100.00;100093.88;4999120;28;20040;-84
2021/11/21 08:50:29;;;;;;;20.58;10.57;;;7.90;99.90;;;8.81;100.00;100089.56;4997723;28;20398;-81
2021/11/21 08:52:56;;;;;;;20.35;11.73;;;8.00;99.90;;;8.85;100.00;100092.44;5000074;28;20052;-81
2021/11/21 08:55:22;;;;;;;23.05;13.43;;;8.00;99.90;;;8.84;100.00;100090.81;5000208;28;20034;-81
2021/11/21 08:57:49;;;;;;;21.83;13.55;;;8.00;99.90;;;8.87;100.00;100107.59;5018408;28;20085;-84
2021/11/21 09:00:17;;;;;;;21.20;12.35;;;8.00;99.90;;;8.90;100.00;100101.31;5000773;28;20056;-84
2021/11/21 09:02:43;;;;;;;27.45;12.75;;;8.10;99.90;;;8.89;100.00;100101.69;5022949;28;20034;-83
2021/11/21 09:05:11;;;;;;;19.27;10.73;;;8.10;99.90;;;8.93;100.00;100099.78;5003123;28;20025;-84
2021/11/21 09:07:41;;;;;;;22.95;13.70;;;8.10;99.90;;;8.99;100.00;100101.13;5018326;28;20076;-85
2021/11/21 09:10:20;;;;;;;24.55;13.30;;;8.10;99.90;;;9.04;100.00;100095.28;5017159;28;20041;-83
2021/11/21 09:12:48;;;;;;;21.15;12.55;;;8.20;99.90;;;9.07;100.00;100108.50;4999981;28;20029;-85
2021/11/21 09:15:21;;;;;;;22.33;12.88;;;8.20;99.90;;;9.14;100.00;100099.50;5017011;28;20036;-82
2021/11/21 09:17:53;;;;;;;20.30;10.98;;;8.20;99.90;;;9.24;100.00;100096.16;5018218;28;20022;-84
2021/11/21 09:20:25;;;;;;;26.17;12.95;;;8.40;99.90;;;9.37;100.00;100103.25;4998711;28;20026;-83
2021/11/21 09:22:52;;;;;;;25.17;15.10;;;8.40;99.90;;;9.39;100.00;100107.28;5001206;28;20010;-84
2021/11/21 09:25:20;;;;;;;31.70;18.00;;;8.50;99.90;;;9.46;100.00;100109.41;4998042;28;20034;-84
2021/11/21 09:27:46;;;;;;;32.08;16.73;;;8.50;99.90;;;9.34;100.00;100117.91;5015477;28;20325;-84
2021/11/21 09:30:13;;;;;;;26.83;14.45;;;8.40;99.90;;;9.30;100.00;100114.22;5014034;28;20029;-82
2021/11/21 09:32:42;;;;;;;32.22;17.08;;;8.40;99.90;;;9.26;100.00;100116.09;5001412;28;20053;-85
2021/11/21 09:35:10;;;;;;;30.73;18.30;;;8.40;99.90;;;9.25;100.00;100122.84;5018690;28;20034;-82
2021/11/21 09:37:37;;;;;;;26.00;15.38;;;8.40;99.90;;;9.18;100.00;100115.16;5025458;28;20486;-83
2021/11/21 09:40:06;;;;;;;65.63;26.45;;;8.30;99.90;;;9.17;100.00;100121.88;4999891;28;20026;-81
2021/11/21 09:42:32;;;;;;;72.20;29.50;;;8.40;99.90;;;9.18;100.00;100111.53;5003930;28;20514;-81
2021/11/21 09:44:58;;;;;;;31.42;18.58;;;8.40;99.90;;;9.25;100.00;100103.31;5003859;28;20084;-82
2021/11/21 09:47:24;;;;;;;26.52;15.63;;;8.40;99.90;;;9.28;100.00;100111.78;5001469;28;20433;-84
2021/11/21 09:50:05;;;;;;;29.20;17.33;;;8.40;99.90;;;9.40;100.00;100110.88;5006762;28;20017;-85
2021/11/21 09:52:31;;;;;;;31.58;17.45;;;8.50;99.90;;;9.37;100.00;100106.03;5005020;28;20065;-85
2021/11/21 09:55:00;;;;;;;29.70;17.13;;;8.50;99.90;;;9.37;100.00;100111.59;5005152;28;20084;-85
2021/11/21 09:57:29;;;;;;;29.73;17.02;;;8.50;99.90;;;9.47;100.00;100114.59;5012166;28;20084;-82
2021/11/21 10:00:11;;;;;;;33.72;20.58;;;8.60;99.90;;;9.50;100.00;100110.31;5007889;28;20025;-83
2021/11/21 10:02:56;;;;;;;30.13;17.90;;;8.60;99.90;;;9.64;100.00;100107.81;5003276;28;20034;-82
2021/11/21 10:05:28;;;;;;;26.17;15.65;;;8.70;99.90;;;9.77;100.00;100106.50;5002383;28;20053;-83